Time;durP1;ratioP1;P1;durP2;ratioP2;P2;SDS_P1;SDS_P2;PMS_P1;PMS_P2;Temp;Humidity;BMP_temperature;BMP_pressure;BME280_temperature;BME280_humidity;BME280_pressure;Samples;Min_cycle;Max_cycle;Signal;HPM_P1;HPM_P2
2023/10/23 00:01:53;;;;;;;;;;;7.80;99.90;;;;;;5113637;28;20009;-31
2023/10/23 00:04:20;;;;;;;;;;;7.70;99.90;;;;;;5094634;28;20340;-31
2023/10/23 00:06:46;;;;;;;;;;;7.70;99.90;;;;;;5094360;28;19975;-32
2023/10/23 00:09:14;;;;;;;;;;;7.70;99.90;;;;;;5092574;28;19957;-32
2023/10/23 00:11:40;;;;;;;;;;;7.70;99.90;;;;;;5111883;28;19927;-32
2023/10/23 00:14:08;;;;;;;;;;;7.70;99.90;;;;;;5090225;28;19931;-32
2023/10/23 00:16:35;;;;;;;;;;;7.60;99.90;;;;;;5078284;28;19927;-32
2023/10/23 00:19:01;;;;;;;;;;;7.60;99.90;;;;;;5093276;28;19924;-31
2023/10/23 00:21:31;;;;;;;;;;;7.60;99.90;;;;;;5094944;28;19957;-31
2023/10/23 00:23:58;;;;;;;;;;;7.60;99.90;;;;;;5112322;28;20007;-32
2023/10/23 00:26:25;;;;;;;;;;;7.60;99.90;;;;;;5092438;28;19960;-31
2023/10/23 00:28:52;;;;;;;;;;;7.60;99.90;;;;;;5110318;27;20395;-31
2023/10/23 00:31:20;;;;;;;;;;;7.60;99.90;;;;;;5085761;28;19984;-32
2023/10/23 00:33:46;;;;;;;;;;;7.60;99.90;;;;;;5094173;28;19958;-31
2023/10/23 00:36:13;;;;;;;;;;;7.50;99.90;;;;;;5111959;28;19995;-31
2023/10/23 00:38:40;;;;;;;;;;;7.50;99.90;;;;;;5093899;28;19924;-32
2023/10/23 00:41:06;;;;;;;;;;;7.50;99.90;;;;;;5109489;28;20464;-33
2023/10/23 00:43:34;;;;;;;;;;;7.50;99.90;;;;;;5090702;28;19997;-32
2023/10/23 00:46:01;;;;;;;;;;;7.50;99.90;;;;;;5094373;28;19928;-31
2023/10/23 00:48:29;;;;;;;;;;;7.50;99.90;;;;;;5092872;28;19924;-31
2023/10/23 00:50:56;;;;;;;;;;;7.50;99.90;;;;;;5094973;28;19980;-31
2023/10/23 00:53:24;;;;;;;;;;;7.50;99.90;;;;;;5111287;28;19923;-32
2023/10/23 00:55:51;;;;;;;;;;;7.40;99.90;;;;;;5066463;28;19943;-32
2023/10/23 00:58:18;;;;;;;;;;;7.40;99.90;;;;;;5091590;28;19989;-31
2023/10/23 01:00:44;;;;;;;;;;;7.40;99.90;;;;;;5093512;28;20558;-31
2023/10/23 01:03:11;;;;;;;;;;;7.40;99.90;;;;;;5112261;28;19930;-31
2023/10/23 01:05:39;;;;;;;;;;;7.40;99.90;;;;;;5094705;28;20073;-31
2023/10/23 01:08:06;;;;;;;;;;;7.30;99.90;;;;;;5092141;28;19924;-31
2023/10/23 01:10:33;;;;;;;;;;;7.30;99.90;;;;;;5093737;28;20429;-31
2023/10/23 01:12:59;;;;;;;;;;;7.30;99.90;;;;;;5093067;28;19974;-31
2023/10/23 01:15:26;;;;;;;;;;;7.30;99.90;;;;;;5091165;28;20015;-31
2023/10/23 01:17:52;;;;;;;;;;;7.30;99.90;;;;;;5092190;28;20020;-31
2023/10/23 01:20:19;;;;;;;;;;;7.20;99.90;;;;;;5111462;28;20334;-32
2023/10/23 01:22:47;;;;;;;;;;;7.20;99.90;;;;;;5110848;28;19967;-32
2023/10/23 01:25:15;;;;;;;;;;;7.20;99.90;;;;;;5091728;28;19924;-31
2023/10/23 01:27:42;;;;;;;;;;;7.20;99.90;;;;;;5093697;28;19965;-32
2023/10/23 01:30:09;;;;;;;;;;;7.10;99.90;;;;;;5091697;28;20007;-32
2023/10/23 01:32:35;;;;;;;;;;;7.20;99.90;;;;;;5109703;28;19924;-31
2023/10/23 01:35:02;;;;;;;;;;;7.10;99.90;;;;;;5110754;28;20403;-33
2023/10/23 01:37:29;;;;;;;;;;;7.10;99.90;;;;;;5094025;28;20008;-33
2023/10/23 01:39:55;;;;;;;;;;;7.10;99.90;;;;;;5096774;28;19958;-32
2023/10/23 01:42:26;;;;;;;;;;;7.10;99.90;;;;;;5098702;28;19969;-32
2023/10/23 01:44:53;;;;;;;;;;;7.10;99.90;;;;;;5116201;28;19927;-31
2023/10/23 01:47:20;;;;;;;;;;;7.00;99.90;;;;;;5115655;28;20363;-32
2023/10/23 01:49:46;;;;;;;;;;;7.00;99.90;;;;;;5098197;28;19963;-32
2023/10/23 01:52:13;;;;;;;;;;;7.00;99.90;;;;;;5098311;28;19980;-33
2023/10/23 01:54:39;;;;;;;;;;;7.00;99.90;;;;;;5097692;28;20395;-32
2023/10/23 01:57:06;;;;;;;;;;;6.90;99.90;;;;;;5095443;28;19953;-31
2023/10/23 01:59:34;;;;;;;;;;;6.90;99.90;;;;;;5097292;28;19982;-32
2023/10/23 02:02:01;;;;;;;;;;;6.90;99.90;;;;;;5097890;28;19928;-32
2023/10/23 02:04:27;;;;;;;;;;;6.80;99.90;;;;;;5115717;28;19938;-32
2023/10/23 02:06:54;;;;;;;;;;;6.80;99.90;;;;;;5096175;28;19984;-31
2023/10/23 02:09:21;;;;;;;;;;;6.80;99.90;;;;;;5098159;28;20367;-32
2023/10/23 02:11:47;;;;;;;;;;;6.70;99.90;;;;;;5097904;28;19930;-31
2023/10/23 02:14:14;;;;;;;;;;;6.80;99.90;;;;;;5096620;28;20410;-32
2023/10/23 02:16:42;;;;;;;;;;;6.70;99.90;;;;;;5096300;28;19924;-31
2023/10/23 02:19:09;;;;;;;;;;;6.70;99.90;;;;;;5097902;28;20364;-32
2023/10/23 02:21:36;;;;;;;;;;;6.70;99.90;;;;;;5113595;28;20332;-31
2023/10/23 02:24:03;;;;;;;;;;;6.70;99.90;;;;;;5097638;28;19959;-33
2023/10/23 02:26:30;;;;;;;;;;;6.60;99.90;;;;;;5095915;28;20379;-31
2023/10/23 02:28:57;;;;;;;;;;;6.60;99.90;;;;;;5084592;28;19927;-33
2023/10/23 02:31:23;;;;;;;;;;;6.60;99.90;;;;;;5114728;28;20383;-31
2023/10/23 02:33:51;;;;;;;;;;;6.60;99.90;;;;;;5115053;28;20328;-31
2023/10/23 02:36:18;;;;;;;;;;;6.60;99.90;;;;;;5097451;28;19955;-32
2023/10/23 02:38:45;;;;;;;;;;;6.50;99.90;;;;;;5114144;28;19958;-32
2023/10/23 02:41:11;;;;;;;;;;;6.50;99.90;;;;;;5095063;28;20004;-32
2023/10/23 02:43:38;;;;;;;;;;;6.50;99.90;;;;;;5113976;28;20155;-31
2023/10/23 02:46:05;;;;;;;;;;;6.50;99.90;;;;;;5095724;28;19924;-32
2023/10/23 02:48:31;;;;;;;;;;;6.50;99.90;;;;;;5092306;28;20019;-32
2023/10/23 02:51:00;;;;;;;;;;;6.50;99.90;;;;;;5112262;28;20342;-31
2023/10/23 02:53:27;;;;;;;;;;;6.50;99.90;;;;;;5109622;28;19924;-31
2023/10/23 02:55:53;;;;;;;;;;;6.40;99.90;;;;;;5093844;28;19923;-32
2023/10/23 02:58:20;;;;;;;;;;;6.40;99.90;;;;;;5114627;27;19936;-32
2023/10/23 03:00:47;;;;;;;;;;;6.40;99.90;;;;;;5096208;28;20000;-32
2023/10/23 03:03:13;;;;;;;;;;;6.40;99.90;;;;;;5115114;28;19968;-31
2023/10/23 03:05:40;;;;;;;;;;;6.30;99.90;;;;;;5095118;28;20012;-31
2023/10/23 03:08:08;;;;;;;;;;;6.30;99.90;;;;;;5114200;28;20012;-31
2023/10/23 03:10:35;;;;;;;;;;;6.30;99.90;;;;;;5096285;28;19954;-32
2023/10/23 03:13:02;;;;;;;;;;;6.30;99.90;;;;;;5096869;28;19964;-31
2023/10/23 03:15:29;;;;;;;;;;;6.30;99.90;;;;;;5095172;28;20360;-32
2023/10/23 03:17:56;;;;;;;;;;;6.30;99.90;;;;;;5095307;28;20036;-31
2023/10/23 03:20:22;;;;;;;;;;;6.40;99.90;;;;;;5095334;28;19924;-31
2023/10/23 03:22:49;;;;;;;;;;;6.30;99.90;;;;;;5114342;28;20404;-31
2023/10/23 03:25:17;;;;;;;;;;;6.30;99.90;;;;;;5094576;28;19984;-31
2023/10/23 03:27:44;;;;;;;;;;;6.30;99.90;;;;;;5094886;28;19928;-32
2023/10/23 03:30:11;;;;;;;;;;;6.30;99.90;;;;;;5113369;28;20419;-31
2023/10/23 03:32:37;;;;;;;;;;;6.30;99.90;;;;;;5095635;28;19972;-32
2023/10/23 03:35:04;;;;;;;;;;;6.30;99.90;;;;;;5110817;28;20447;-32
2023/10/23 03:37:31;;;;;;;;;;;6.30;99.90;;;;;;5086975;28;19957;-32
2023/10/23 03:39:58;;;;;;;;;;;6.30;99.90;;;;;;5109417;28;19967;-32
2023/10/23 03:42:26;;;;;;;;;;;6.30;99.90;;;;;;5112779;28;20436;-32
2023/10/23 03:44:52;;;;;;;;;;;6.30;99.90;;;;;;5093742;27;19931;-31
2023/10/23 03:47:19;;;;;;;;;;;6.30;99.90;;;;;;5093983;28;20046;-31
2023/10/23 03:49:47;;;;;;;;;;;6.30;99.90;;;;;;5094410;28;19972;-31
2023/10/23 03:52:14;;;;;;;;;;;6.30;99.90;;;;;;5112112;28;20329;-32
2023/10/23 03:54:40;;;;;;;;;;;6.30;99.90;;;;;;5075124;28;19924;-32
2023/10/23 03:57:07;;;;;;;;;;;6.30;99.90;;;;;;5112370;28;19923;-31
2023/10/23 03:59:35;;;;;;;;;;;6.30;99.90;;;;;;5095548;28;19973;-31
2023/10/23 04:02:02;;;;;;;;;;;6.30;99.90;;;;;;5093791;28;19958;-31
2023/10/23 04:04:28;;;;;;;;;;;6.20;99.90;;;;;;5111212;28;20016;-32
2023/10/23 04:06:55;;;;;;;;;;;6.20;99.90;;;;;;5088528;28;20084;-31
2023/10/23 04:09:21;;;;;;;;;;;6.20;99.90;;;;;;5110838;28;20341;-31
2023/10/23 04:11:48;;;;;;;;;;;6.10;99.90;;;;;;5094973;28;19958;-33
2023/10/23 04:14:15;;;;;;;;;;;6.10;99.90;;;;;;5107913;28;19975;-32
2023/10/23 04:16:43;;;;;;;;;;;6.10;99.90;;;;;;5080667;28;20041;-32
2023/10/23 04:19:09;;;;;;;;;;;6.10;99.90;;;;;;5088210;28;20273;-32
2023/10/23 04:21:39;;;;;;;;;;;6.10;99.90;;;;;;5101164;28;20403;-33
2023/10/23 04:24:06;;;;;;;;;;;6.10;99.90;;;;;;5086597;28;19924;-32
2023/10/23 04:26:32;;;;;;;;;;;6.10;99.90;;;;;;5081828;28;20006;-32
2023/10/23 04:28:59;;;;;;;;;;;6.10;99.90;;;;;;5104893;28;19924;-32
2023/10/23 04:31:26;;;;;;;;;;;6.10;99.90;;;;;;5094160;28;19985;-32
2023/10/23 04:33:54;;;;;;;;;;;6.00;99.90;;;;;;5110274;28;19931;-33
2023/10/23 04:36:21;;;;;;;;;;;6.00;99.90;;;;;;5093681;28;20004;-33
2023/10/23 04:38:47;;;;;;;;;;;6.00;99.90;;;;;;5093356;28;20457;-32
2023/10/23 04:41:14;;;;;;;;;;;6.00;99.90;;;;;;5112359;28;19931;-31
2023/10/23 04:43:40;;;;;;;;;;;5.90;99.90;;;;;;5109678;28;19969;-33
2023/10/23 04:46:07;;;;;;;;;;;6.00;99.90;;;;;;5094222;28;19924;-32
2023/10/23 04:48:34;;;;;;;;;;;5.90;99.90;;;;;;5091938;28;19928;-33
2023/10/23 04:51:03;;;;;;;;;;;6.00;99.90;;;;;;5111708;28;19975;-32
2023/10/23 04:53:29;;;;;;;;;;;5.90;99.90;;;;;;5109022;28;20374;-32
2023/10/23 04:55:58;;;;;;;;;;;5.90;99.90;;;;;;5112743;28;19972;-32
2023/10/23 04:58:24;;;;;;;;;;;5.90;99.90;;;;;;5091676;28;19954;-33
2023/10/23 05:00:51;;;;;;;;;;;5.90;99.90;;;;;;5091156;28;19931;-32
2023/10/23 05:03:18;;;;;;;;;;;5.90;99.90;;;;;;5093164;28;19961;-32
2023/10/23 05:05:48;;;;;;;;;;;5.80;99.90;;;;;;5095035;28;19923;-32
2023/10/23 05:08:16;;;;;;;;;;;5.80;99.90;;;;;;5091093;28;19924;-32
2023/10/23 05:10:43;;;;;;;;;;;5.80;99.90;;;;;;5109815;28;19963;-31
2023/10/23 05:13:09;;;;;;;;;;;5.80;99.90;;;;;;5090303;28;20018;-32
2023/10/23 05:15:36;;;;;;;;;;;5.70;99.90;;;;;;5096631;28;19924;-31
2023/10/23 05:18:03;;;;;;;;;;;5.70;99.90;;;;;;5093716;28;20065;-33
2023/10/23 05:20:29;;;;;;;;;;;5.70;99.90;;;;;;5115989;28;19923;-33
2023/10/23 05:22:56;;;;;;;;;;;5.70;99.90;;;;;;5098556;28;20020;-32
2023/10/23 05:25:24;;;;;;;;;;;5.70;99.90;;;;;;5116769;28;19923;-33
2023/10/23 05:27:50;;;;;;;;;;;5.70;99.90;;;;;;5114751;28;20026;-34
2023/10/23 05:30:17;;;;;;;;;;;5.70;99.90;;;;;;5093718;28;19995;-33
2023/10/23 05:32:50;;;;;;;;;;;5.70;99.90;;;;;;5090232;28;19967;-33
2023/10/23 05:35:17;;;;;;;;;;;5.70;99.90;;;;;;5098236;28;19958;-34
2023/10/23 05:37:43;;;;;;;;;;;5.60;99.90;;;;;;5100512;28;20376;-33
2023/10/23 05:43:33;;;;;;;;;;;5.70;99.90;;;;;;5116464;28;19922;-33
2023/10/23 05:46:02;;;;;;;;;;;5.70;99.90;;;;;;5095972;28;19939;-33
2023/10/23 05:48:28;;;;;;;;;;;5.70;99.90;;;;;;5096315;28;19955;-32
2023/10/23 05:50:59;;;;;;;;;;;5.70;99.90;;;;;;5096720;28;20276;-31
2023/10/23 05:53:26;;;;;;;;;;;5.60;99.90;;;;;;5086315;28;19974;-32
2023/10/23 05:55:52;;;;;;;;;;;5.60;99.90;;;;;;5076533;28;19928;-31
2023/10/23 05:58:39;;;;;;;;;;;5.60;99.90;;;;;;5114706;28;20287;-31
2023/10/23 06:01:06;;;;;;;;;;;5.60;99.90;;;;;;5096307;28;20001;-31
2023/10/23 06:03:33;;;;;;;;;;;5.60;99.90;;;;;;5096266;28;19938;-32
2023/10/23 06:06:00;;;;;;;;;;;5.60;99.90;;;;;;5113790;28;19924;-31
2023/10/23 06:08:26;;;;;;;;;;;5.60;99.90;;;;;;5096643;28;20379;-32
2023/10/23 06:10:53;;;;;;;;;;;5.60;99.90;;;;;;5093673;28;20422;-32
2023/10/23 06:13:20;;;;;;;;;;;5.60;99.90;;;;;;5113543;28;19964;-31
2023/10/23 06:15:48;;;;;;;;;;;5.50;99.90;;;;;;5114504;28;19946;-31
2023/10/23 06:18:15;;;;;;;;;;;5.60;99.90;;;;;;5114124;28;20001;-32
2023/10/23 06:20:41;;;;;;;;;;;5.50;99.90;;;;;;5096557;28;20008;-31
2023/10/23 06:23:08;;;;;;;;;;;5.50;99.90;;;;;;5101540;28;19966;-32
2023/10/23 06:25:35;;;;;;;;;;;5.50;99.90;;;;;;5092599;28;20417;-32
2023/10/23 06:28:03;;;;;;;;;;;5.50;99.90;;;;;;5112388;28;19947;-31
2023/10/23 06:30:29;;;;;;;;;;;5.40;99.90;;;;;;5094633;28;20002;-31
2023/10/23 06:32:57;;;;;;;;;;;5.40;99.90;;;;;;5093407;28;19930;-31
2023/10/23 06:35:24;;;;;;;;;;;5.40;99.90;;;;;;5092177;28;19924;-32
2023/10/23 06:37:51;;;;;;;;;;;5.40;99.90;;;;;;5104050;28;19931;-31
2023/10/23 06:40:18;;;;;;;;;;;5.40;99.90;;;;;;5095192;28;19934;-31
2023/10/23 06:42:44;;;;;;;;;;;5.40;99.90;;;;;;5092516;28;19945;-31
2023/10/23 06:45:11;;;;;;;;;;;5.40;99.90;;;;;;5094194;28;20015;-31
2023/10/23 06:47:38;;;;;;;;;;;5.40;99.90;;;;;;5095148;28;19923;-31
2023/10/23 06:50:06;;;;;;;;;;;5.40;99.90;;;;;;5110178;28;19977;-33
2023/10/23 06:52:33;;;;;;;;;;;5.40;99.90;;;;;;5111706;28;20417;-31
2023/10/23 06:55:00;;;;;;;;;;;5.40;99.90;;;;;;5093687;28;19938;-32
2023/10/23 06:57:26;;;;;;;;;;;5.40;99.90;;;;;;5091297;28;20472;-31
2023/10/23 06:59:54;;;;;;;;;;;5.40;99.90;;;;;;5092857;28;20364;-32
2023/10/23 07:02:21;;;;;;;;;;;5.40;99.90;;;;;;5110259;28;19967;-31
2023/10/23 07:04:48;;;;;;;;;;;5.40;99.90;;;;;;5093261;28;19955;-32
2023/10/23 07:07:16;;;;;;;;;;;5.40;99.90;;;;;;5092583;28;20343;-32
2023/10/23 07:09:43;;;;;;;;;;;5.40;99.90;;;;;;5110247;28;19970;-31
2023/10/23 07:12:10;;;;;;;;;;;5.40;99.90;;;;;;5092873;28;19980;-32
2023/10/23 07:14:36;;;;;;;;;;;5.50;99.90;;;;;;5093227;28;20638;-32
2023/10/23 07:17:03;;;;;;;;;;;5.40;99.90;;;;;;5091712;28;19991;-33
2023/10/23 07:19:30;;;;;;;;;;;5.40;99.90;;;;;;5092601;28;19924;-34
2023/10/23 07:21:56;;;;;;;;;;;5.40;99.90;;;;;;5093990;28;19927;-32
2023/10/23 07:24:24;;;;;;;;;;;5.50;99.90;;;;;;5088276;28;20026;-31
2023/10/23 07:26:51;;;;;;;;;;;5.50;99.90;;;;;;5111509;28;19984;-31
2023/10/23 07:29:17;;;;;;;;;;;5.50;99.90;;;;;;5092647;28;19999;-31
2023/10/23 07:31:44;;;;;;;;;;;5.60;99.90;;;;;;5094825;28;19928;-31
2023/10/23 07:34:11;;;;;;;;;;;5.70;99.90;;;;;;5109867;28;20357;-31
2023/10/23 07:36:38;;;;;;;;;;;5.70;99.90;;;;;;5090280;28;20417;-31
2023/10/23 07:39:05;;;;;;;;;;;5.80;99.90;;;;;;5092542;28;20301;-32
2023/10/23 07:41:33;;;;;;;;;;;5.90;99.90;;;;;;5110653;28;20412;-32
2023/10/23 07:44:00;;;;;;;;;;;5.90;99.90;;;;;;5110486;28;20346;-32
2023/10/23 07:46:26;;;;;;;;;;;6.00;99.90;;;;;;5091487;28;20253;-33
2023/10/23 07:48:53;;;;;;;;;;;6.10;99.90;;;;;;5093617;28;19968;-31
2023/10/23 07:51:20;;;;;;;;;;;6.20;99.90;;;;;;5112545;28;19967;-31
2023/10/23 07:53:46;;;;;;;;;;;6.40;99.90;;;;;;5094365;28;19923;-31
2023/10/23 07:56:13;;;;;;;;;;;6.50;99.90;;;;;;5110017;28;19924;-31
2023/10/23 07:58:41;;;;;;;;;;;6.60;99.90;;;;;;5094119;28;19945;-32
2023/10/23 08:01:08;;;;;;;;;;;6.80;99.90;;;;;;5112655;28;20307;-31
2023/10/23 08:03:35;;;;;;;;;;;6.90;99.90;;;;;;5112192;28;19967;-31
2023/10/23 08:06:03;;;;;;;;;;;7.10;99.90;;;;;;5094413;28;20439;-32
2023/10/23 08:08:30;;;;;;;;;;;7.30;99.90;;;;;;5112137;28;19958;-31
2023/10/23 08:10:56;;;;;;;;;;;7.40;99.90;;;;;;5110327;28;19924;-33
2023/10/23 08:13:23;;;;;;;;;;;7.50;99.90;;;;;;5093992;28;19924;-32
2023/10/23 08:15:51;;;;;;;;;;;7.70;99.90;;;;;;5111225;28;19976;-32
2023/10/23 08:18:18;;;;;;;;;;;7.80;99.90;;;;;;5092123;28;19928;-31
2023/10/23 08:20:45;;;;;;;;;;;7.90;99.90;;;;;;5100191;28;20518;-33
2023/10/23 08:23:11;;;;;;;;;;;8.10;99.90;;;;;;5108249;28;19977;-33
2023/10/23 08:25:38;;;;;;;;;;;8.20;99.90;;;;;;5087997;28;19958;-32
2023/10/23 08:28:05;;;;;;;;;;;8.30;99.90;;;;;;5108208;28;20590;-32
2023/10/23 08:30:33;;;;;;;;;;;8.40;99.90;;;;;;5109737;28;19977;-31
2023/10/23 08:33:01;;;;;;;;;;;8.50;99.90;;;;;;5091287;28;20031;-33
2023/10/23 08:35:28;;;;;;;;;;;8.60;99.90;;;;;;5108477;28;20392;-32
2023/10/23 08:37:55;;;;;;;;;;;8.70;99.90;;;;;;5106177;28;20440;-33
2023/10/23 08:40:21;;;;;;;;;;;8.80;99.90;;;;;;5107453;28;19924;-32
2023/10/23 08:42:48;;;;;;;;;;;9.00;99.90;;;;;;5107188;28;19938;-32
2023/10/23 08:45:15;;;;;;;;;;;9.00;99.90;;;;;;5089528;28;20364;-33
2023/10/23 08:47:42;;;;;;;;;;;9.10;99.90;;;;;;5093048;28;20612;-32
2023/10/23 08:50:10;;;;;;;;;;;9.20;99.90;;;;;;5110322;28;20387;-32
2023/10/23 08:52:39;;;;;;;;;;;9.30;99.90;;;;;;5106409;28;19982;-31
2023/10/23 08:55:06;;;;;;;;;;;9.40;99.90;;;;;;5100066;28;19924;-32
2023/10/23 08:57:33;;;;;;;;;;;9.40;99.90;;;;;;5093038;28;20399;-33
2023/10/23 08:59:59;;;;;;;;;;;9.40;99.90;;;;;;5110363;28;20020;-32
2023/10/23 09:02:27;;;;;;;;;;;9.40;99.90;;;;;;5109483;28;19938;-32
2023/10/23 09:04:54;;;;;;;;;;;9.50;99.90;;;;;;5109507;28;20347;-33
2023/10/23 09:07:22;;;;;;;;;;;9.50;99.90;;;;;;5111154;28;19924;-31
2023/10/23 09:09:49;;;;;;;;;;;9.70;99.90;;;;;;5111042;28;19984;-32
2023/10/23 09:12:29;;;;;;;;;;;9.80;99.90;;;;;;5109802;28;19946;-31
2023/10/23 09:14:56;;;;;;;;;;;9.90;99.90;;;;;;5083211;28;19930;-34
2023/10/23 09:17:23;;;;;;;;;;;9.90;99.90;;;;;;5090196;28;19954;-32
2023/10/23 09:19:50;;;;;;;;;;;10.00;99.90;;;;;;5085330;28;19932;-32
2023/10/23 09:22:16;;;;;;;;;;;10.10;99.90;;;;;;5105950;28;19969;-33
2023/10/23 09:24:45;;;;;;;;;;;10.20;99.90;;;;;;5103414;28;19988;-31
2023/10/23 09:27:14;;;;;;;;;;;10.20;99.90;;;;;;5084288;28;20440;-32
2023/10/23 09:29:40;;;;;;;;;;;10.30;99.90;;;;;;5104403;28;20669;-32
2023/10/23 09:32:07;;;;;;;;;;;10.30;99.90;;;;;;5088475;28;20010;-32
2023/10/23 09:34:34;;;;;;;;;;;10.30;99.90;;;;;;5088856;28;19958;-32
2023/10/23 09:37:01;;;;;;;;;;;10.40;99.90;;;;;;5107645;28;19931;-33
2023/10/23 09:39:27;;;;;;;;;;;10.50;99.90;;;;;;5091490;28;19938;-32
2023/10/23 09:41:55;;;;;;;;;;;10.50;99.90;;;;;;5106047;28;19985;-32
2023/10/23 09:44:24;;;;;;;;;;;10.60;99.90;;;;;;5089561;28;19955;-32
2023/10/23 09:46:50;;;;;;;;;;;10.70;99.90;;;;;;5109678;28;19975;-33
2023/10/23 09:49:17;;;;;;;;;;;10.80;99.90;;;;;;5090715;28;20299;-33
2023/10/23 09:51:44;;;;;;;;;;;10.80;99.90;;;;;;5109662;28;20398;-32
2023/10/23 09:54:15;;;;;;;;;;;10.90;99.90;;;;;;5106234;28;20031;-31
2023/10/23 09:56:44;;;;;;;;;;;10.90;99.90;;;;;;5085689;28;19954;-32
2023/10/23 09:59:12;;;;;;;;;;;10.90;99.90;;;;;;5088977;28;19970;-32
2023/10/23 10:01:40;;;;;;;;;;;11.00;99.90;;;;;;5111157;27;19947;-31
2023/10/23 10:04:08;;;;;;;;;;;11.10;99.90;;;;;;5095083;28;20011;-31
2023/10/23 10:06:35;;;;;;;;;;;11.10;99.90;;;;;;5111284;28;19969;-31
2023/10/23 10:09:04;;;;;;;;;;;11.10;99.90;;;;;;5112846;28;19977;-32
2023/10/23 10:11:30;;;;;;;;;;;11.20;99.90;;;;;;5094224;28;19928;-33
2023/10/23 10:13:57;;;;;;;;;;;11.30;99.90;;;;;;5095181;28;19932;-33
2023/10/23 10:16:25;;;;;;;;;;;11.30;99.90;;;;;;5094124;28;20016;-33
2023/10/23 10:18:52;;;;;;;;;;;11.30;99.90;;;;;;5093006;28;19931;-32
2023/10/23 10:21:19;;;;;;;;;;;11.30;99.90;;;;;;5102184;27;20004;-31
2023/10/23 10:23:46;;;;;;;;;;;11.30;99.90;;;;;;5112525;28;20375;-32
2023/10/23 10:26:13;;;;;;;;;;;11.20;99.90;;;;;;5095039;28;20036;-33
2023/10/23 10:28:40;;;;;;;;;;;11.10;99.90;;;;;;5089175;28;19954;-32
2023/10/23 10:31:06;;;;;;;;;;;11.10;99.90;;;;;;5112617;28;19924;-32
2023/10/23 10:33:34;;;;;;;;;;;11.00;99.90;;;;;;5112789;28;19969;-32
2023/10/23 10:36:02;;;;;;;;;;;11.00;99.90;;;;;;5099664;27;19928;-33
2023/10/23 10:38:30;;;;;;;;;;;11.00;99.90;;;;;;5085658;28;19959;-33
2023/10/23 10:40:57;;;;;;;;;;;11.00;99.90;;;;;;5068585;28;19969;-34
2023/10/23 10:43:24;;;;;;;;;;;10.90;99.90;;;;;;5093979;28;20010;-32
2023/10/23 10:45:51;;;;;;;;;;;10.90;99.90;;;;;;5093681;28;19958;-33
2023/10/23 10:48:17;;;;;;;;;;;10.90;99.90;;;;;;5093515;28;19967;-32
2023/10/23 10:50:46;;;;;;;;;;;10.90;99.90;;;;;;5092155;28;19938;-33
2023/10/23 10:53:14;;;;;;;;;;;10.90;99.90;;;;;;5090762;28;19924;-32
2023/10/23 10:55:41;;;;;;;;;;;10.90;99.90;;;;;;5111139;28;19977;-32
2023/10/23 10:58:08;;;;;;;;;;;10.80;99.90;;;;;;5113937;28;19930;-33
2023/10/23 11:00:35;;;;;;;;;;;10.80;99.90;;;;;;5111748;27;19928;-32
2023/10/23 11:03:02;;;;;;;;;;;10.80;99.90;;;;;;5095476;28;19931;-32
2023/10/23 11:05:29;;;;;;;;;;;10.80;99.90;;;;;;5082872;28;19924;-31
2023/10/23 11:07:57;;;;;;;;;;;10.80;99.90;;;;;;5093652;28;19977;-32
2023/10/23 11:10:24;;;;;;;;;;;10.90;99.90;;;;;;5096019;28;19980;-32
2023/10/23 11:12:51;;;;;;;;;;;10.90;99.90;;;;;;5094639;28;19958;-32
2023/10/23 11:15:17;;;;;;;;;;;10.90;99.90;;;;;;5113804;28;19962;-32
2023/10/23 11:17:44;;;;;;;;;;;10.90;99.90;;;;;;5091640;28;20399;-32
2023/10/23 11:20:11;;;;;;;;;;;10.90;99.90;;;;;;5106015;28;20012;-31
2023/10/23 11:22:38;;;;;;;;;;;10.90;99.90;;;;;;5113317;28;19962;-33
2023/10/23 11:25:08;;;;;;;;;;;10.90;99.90;;;;;;5113443;28;19923;-32
2023/10/23 11:27:35;;;;;;;;;;;10.90;99.90;;;;;;5107035;27;19960;-33
2023/10/23 11:30:03;;;;;;;;;;;10.90;99.90;;;;;;5091863;28;19974;-34
2023/10/23 11:32:30;;;;;;;;;;;10.90;99.90;;;;;;5093701;28;19943;-33
2023/10/23 11:35:00;;;;;;;;;;;10.90;99.90;;;;;;5095726;28;20425;-31
2023/10/23 11:37:31;;;;;;;;;;;11.00;99.90;;;;;;5093118;27;20208;-32
2023/10/23 11:40:05;;;;;;;;;;;11.00;99.90;;;;;;5095863;28;20394;-32
2023/10/23 11:42:34;;;;;;;;;;;11.00;99.90;;;;;;5096416;28;20012;-32
2023/10/23 11:45:00;;;;;;;;;;;11.00;99.90;;;;;;5109085;28;20351;-32
2023/10/23 11:47:27;;;;;;;;;;;11.10;99.90;;;;;;5107765;28;19958;-32
2023/10/23 11:49:54;;;;;;;;;;;11.10;99.90;;;;;;5090444;28;19928;-32
2023/10/23 11:52:21;;;;;;;;;;;11.20;99.90;;;;;;5108044;28;20083;-32
2023/10/23 11:54:47;;;;;;;;;;;11.20;99.90;;;;;;5094015;28;19959;-32
2023/10/23 11:57:14;;;;;;;;;;;11.30;99.90;;;;;;5094906;28;19927;-31
2023/10/23 11:59:42;;;;;;;;;;;11.30;99.90;;;;;;5113847;28;19924;-33
2023/10/23 12:02:09;;;;;;;;;;;11.40;99.90;;;;;;5112647;28;19951;-33
2023/10/23 12:04:36;;;;;;;;;;;11.40;99.90;;;;;;5094419;28;20436;-34
2023/10/23 12:07:04;;;;;;;;;;;11.50;99.90;;;;;;5094736;28;20022;-31
2023/10/23 12:09:31;;;;;;;;;;;11.50;99.90;;;;;;5093662;28;20010;-32
2023/10/23 12:11:57;;;;;;;;;;;11.60;99.90;;;;;;5093222;28;19928;-31
2023/10/23 12:14:24;;;;;;;;;;;11.60;99.90;;;;;;5095577;28;20339;-35
2023/10/23 12:16:52;;;;;;;;;;;11.70;99.90;;;;;;5111295;28;19970;-33
2023/10/23 12:19:19;;;;;;;;;;;11.70;99.90;;;;;;5091030;28;19923;-33
2023/10/23 12:21:46;;;;;;;;;;;11.70;99.90;;;;;;5110312;28;20317;-32
2023/10/23 12:24:12;;;;;;;;;;;11.70;99.90;;;;;;5090873;28;19982;-32
2023/10/23 12:26:40;;;;;;;;;;;11.70;99.90;;;;;;5121182;27;19928;-32
2023/10/23 12:29:09;;;;;;;;;;;11.70;99.90;;;;;;5111059;27;19927;-32
2023/10/23 12:31:36;;;;;;;;;;;11.70;99.90;;;;;;5093873;28;20018;-32
2023/10/23 12:34:04;;;;;;;;;;;11.80;99.90;;;;;;5094201;28;20354;-33
2023/10/23 12:36:31;;;;;;;;;;;11.90;99.90;;;;;;5093004;28;19990;-33
2023/10/23 12:38:57;;;;;;;;;;;11.90;99.90;;;;;;5090260;28;20067;-34
2023/10/23 12:41:24;;;;;;;;;;;12.00;99.90;;;;;;5112152;28;20329;-32
2023/10/23 12:43:51;;;;;;;;;;;12.00;99.90;;;;;;5100643;28;20295;-33
2023/10/23 12:46:17;;;;;;;;;;;12.10;99.90;;;;;;5089083;28;20005;-33
2023/10/23 12:48:44;;;;;;;;;;;12.20;99.90;;;;;;5090993;28;20372;-32
2023/10/23 12:51:12;;;;;;;;;;;12.20;99.90;;;;;;5091693;28;20391;-32
2023/10/23 12:53:39;;;;;;;;;;;12.20;99.90;;;;;;5109488;28;20329;-33
2023/10/23 12:56:06;;;;;;;;;;;12.20;99.90;;;;;;5108415;28;19971;-32
2023/10/23 12:58:33;;;;;;;;;;;12.20;99.90;;;;;;5091640;28;19952;-32
2023/10/23 13:01:00;;;;;;;;;;;12.20;99.90;;;;;;5091607;28;19973;-33
2023/10/23 13:03:27;;;;;;;;;;;12.20;99.90;;;;;;5111484;28;20022;-32
2023/10/23 13:05:53;;;;;;;;;;;12.30;99.90;;;;;;5109680;28;19928;-32
2023/10/23 13:08:21;;;;;;;;;;;12.30;99.90;;;;;;5092163;28;20306;-32
2023/10/23 13:10:48;;;;;;;;;;;12.40;99.90;;;;;;5109903;28;19931;-32
2023/10/23 13:13:15;;;;;;;;;;;12.40;99.90;;;;;;5112451;28;20435;-33
2023/10/23 13:15:41;;;;;;;;;;;12.50;99.90;;;;;;5089840;28;19973;-31
2023/10/23 13:18:08;;;;;;;;;;;12.50;99.90;;;;;;5107961;28;20019;-32
2023/10/23 13:20:35;;;;;;;;;;;12.40;99.90;;;;;;5094857;28;20086;-33
2023/10/23 13:23:02;;;;;;;;;;;12.40;99.90;;;;;;5090553;28;19984;-33
2023/10/23 13:25:30;;;;;;;;;;;12.50;99.90;;;;;;5093164;28;19928;-33
2023/10/23 13:27:57;;;;;;;;;;;12.40;99.90;;;;;;5092991;28;20359;-32
2023/10/23 13:30:23;;;;;;;;;;;12.40;99.90;;;;;;5112528;28;19985;-33
2023/10/23 13:32:50;;;;;;;;;;;12.40;99.90;;;;;;5094381;28;19928;-34
2023/10/23 13:35:17;;;;;;;;;;;12.40;99.90;;;;;;5096022;28;19976;-32
2023/10/23 13:37:43;;;;;;;;;;;12.40;99.90;;;;;;5114456;28;20363;-32
2023/10/23 13:40:11;;;;;;;;;;;12.40;99.90;;;;;;5115835;28;20002;-33
2023/10/23 13:42:39;;;;;;;;;;;12.40;99.90;;;;;;5096555;28;20302;-32
2023/10/23 13:45:06;;;;;;;;;;;12.40;99.90;;;;;;5096687;28;19970;-32
2023/10/23 13:47:32;;;;;;;;;;;12.40;99.90;;;;;;5116443;28;19924;-32
2023/10/23 13:49:59;;;;;;;;;;;12.40;99.90;;;;;;5095845;28;19928;-32
2023/10/23 13:52:26;;;;;;;;;;;12.40;99.90;;;;;;5098484;28;19967;-32
2023/10/23 13:54:53;;;;;;;;;;;12.40;99.90;;;;;;5111336;28;19924;-33
2023/10/23 13:57:20;;;;;;;;;;;12.40;99.90;;;;;;5098207;28;19992;-33
2023/10/23 13:59:48;;;;;;;;;;;12.40;99.90;;;;;;5114236;28;20264;-32
2023/10/23 14:02:14;;;;;;;;;;;12.40;99.90;;;;;;5098207;28;20027;-32
2023/10/23 14:04:41;;;;;;;;;;;12.40;99.90;;;;;;5095895;28;19958;-32
2023/10/23 14:07:07;;;;;;;;;;;12.40;99.90;;;;;;5113032;28;20387;-33
2023/10/23 14:09:34;;;;;;;;;;;12.40;99.90;;;;;;5096049;28;19969;-33
2023/10/23 14:12:01;;;;;;;;;;;12.40;99.90;;;;;;5097270;28;19977;-32
2023/10/23 14:14:28;;;;;;;;;;;12.40;99.90;;;;;;5096868;28;19923;-32
2023/10/23 14:16:56;;;;;;;;;;;12.50;99.90;;;;;;5113988;28;20408;-34
2023/10/23 14:19:23;;;;;;;;;;;12.40;99.90;;;;;;5113007;28;19999;-32
2023/10/23 14:21:49;;;;;;;;;;;12.30;99.90;;;;;;5095400;28;19932;-32
2023/10/23 14:24:19;;;;;;;;;;;12.30;99.90;;;;;;5097353;28;19977;-32
2023/10/23 14:26:46;;;;;;;;;;;12.30;99.90;;;;;;5113705;28;20306;-32
2023/10/23 14:29:12;;;;;;;;;;;12.30;99.90;;;;;;5114669;28;20049;-31